createdAt,value
2018-09-21T00:00:08.027Z,20.80
2018-09-21T00:02:36.464Z,20.80
2018-09-21T00:05:04.975Z,20.80
2018-09-21T00:07:33.364Z,20.80
2018-09-21T00:10:01.764Z,20.80
2018-09-21T00:12:30.119Z,20.80
2018-09-21T00:14:58.527Z,20.70
2018-09-21T00:17:30.520Z,20.70
2018-09-21T00:19:58.936Z,20.70
2018-09-21T00:22:27.323Z,20.70
2018-09-21T00:24:55.705Z,20.60
2018-09-21T00:27:24.039Z,20.60
2018-09-21T00:29:52.415Z,20.50
2018-09-21T00:32:20.853Z,20.50
2018-09-21T00:34:50.045Z,20.50
2018-09-21T00:37:18.433Z,20.50
2018-09-21T00:39:46.788Z,20.50
2018-09-21T00:42:15.154Z,20.50
2018-09-21T00:44:43.526Z,20.50
2018-09-21T00:47:12.127Z,20.50
2018-09-21T00:49:40.547Z,20.50
2018-09-21T00:52:08.896Z,20.40
2018-09-21T00:54:37.260Z,20.40
2018-09-21T00:57:05.662Z,20.40
2018-09-21T00:59:34.091Z,20.30
2018-09-21T01:02:02.536Z,20.40
2018-09-21T01:04:35.957Z,20.30
2018-09-21T01:07:04.708Z,20.30
2018-09-21T01:09:33.052Z,20.30
2018-09-21T01:12:01.410Z,20.30
2018-09-21T01:14:30.248Z,20.20
2018-09-21T01:16:58.643Z,20.20
2018-09-21T01:19:26.976Z,20.20
2018-09-21T01:21:55.914Z,20.20
2018-09-21T01:24:24.296Z,20.30
2018-09-21T01:26:52.756Z,20.30
2018-09-21T01:29:21.077Z,20.30
2018-09-21T01:31:49.489Z,20.30
2018-09-21T01:34:17.877Z,20.40
2018-09-21T01:36:46.252Z,20.30
2018-09-21T01:39:14.693Z,20.30
2018-09-21T01:41:43.022Z,20.40
2018-09-21T01:44:11.675Z,20.30
2018-09-21T01:46:40.045Z,20.40
2018-09-21T01:49:08.662Z,20.50
2018-09-21T01:51:37.047Z,20.60
2018-09-21T01:54:05.394Z,20.60
2018-09-21T01:56:34.365Z,20.60
2018-09-21T01:59:02.768Z,20.60
2018-09-21T02:01:31.128Z,20.60
2018-09-21T02:03:59.519Z,20.60
2018-09-21T02:06:27.908Z,20.60
2018-09-21T02:08:56.273Z,20.70
2018-09-21T02:11:24.613Z,20.60
2018-09-21T02:13:53.281Z,20.60
2018-09-21T02:16:21.695Z,20.60
2018-09-21T02:18:50.121Z,20.60
2018-09-21T02:21:18.431Z,20.60
2018-09-21T02:23:46.808Z,20.50
2018-09-21T02:26:15.160Z,20.60
2018-09-21T02:28:43.533Z,20.50
2018-09-21T02:31:11.879Z,20.50
2018-09-21T02:33:40.668Z,20.40
2018-09-21T02:36:09.063Z,20.50
2018-09-21T02:38:37.429Z,20.40
2018-09-21T02:41:06.770Z,20.40
2018-09-21T02:43:35.112Z,20.40
2018-09-21T02:46:03.620Z,20.40
2018-09-21T02:48:32.025Z,20.30
2018-09-21T02:51:00.371Z,20.30
2018-09-21T02:53:28.732Z,20.20
2018-09-21T02:55:57.099Z,20.20
2018-09-21T02:58:26.119Z,20.20
2018-09-21T03:00:54.595Z,20.20
2018-09-21T03:03:22.842Z,20.10
2018-09-21T03:05:51.804Z,20.20
2018-09-21T03:08:20.190Z,20.20
2018-09-21T03:10:48.570Z,20.20
2018-09-21T03:13:17.463Z,20.20
2018-09-21T03:15:45.850Z,20.20
2018-09-21T03:18:14.240Z,20.30
2018-09-21T03:20:42.622Z,20.30
2018-09-21T03:23:10.945Z,20.40
2018-09-21T03:25:39.256Z,20.40
2018-09-21T03:28:07.600Z,20.40
2018-09-21T03:30:36.003Z,20.40
2018-09-21T03:33:04.363Z,20.40
2018-09-21T03:35:32.723Z,20.40
2018-09-21T03:38:01.743Z,20.50
2018-09-21T03:40:30.163Z,20.50
2018-09-21T03:42:59.307Z,20.50
2018-09-21T03:45:27.689Z,20.50
2018-09-21T03:47:58.701Z,20.50
2018-09-21T03:50:27.061Z,20.50
2018-09-21T03:52:55.433Z,20.50
2018-09-21T03:55:23.783Z,20.60
2018-09-21T03:57:52.114Z,20.50
2018-09-21T04:00:20.521Z,20.60
2018-09-21T04:02:48.864Z,20.60
2018-09-21T04:05:17.252Z,20.60
2018-09-21T04:07:45.612Z,20.60
2018-09-21T04:10:14.176Z,20.60
2018-09-21T04:12:42.548Z,20.70
2018-09-21T04:15:10.979Z,20.70
2018-09-21T04:17:39.339Z,20.60
2018-09-21T04:20:07.756Z,20.60
2018-09-21T04:22:36.125Z,20.50
2018-09-21T04:25:06.071Z,20.50
2018-09-21T04:27:34.513Z,20.60
2018-09-21T04:30:02.910Z,20.60
2018-09-21T04:32:31.309Z,20.60
2018-09-21T04:34:59.680Z,20.60
2018-09-21T04:37:28.140Z,20.60
2018-09-21T04:39:56.500Z,20.50
2018-09-21T04:42:24.861Z,20.60
2018-09-21T04:44:53.268Z,20.60
2018-09-21T04:47:21.667Z,20.60
2018-09-21T04:49:50.440Z,20.60
2018-09-21T04:52:18.842Z,20.60
2018-09-21T04:54:47.204Z,20.60
2018-09-21T04:57:15.595Z,20.50
2018-09-21T04:59:44.003Z,20.50
2018-09-21T05:02:12.399Z,20.50
2018-09-21T05:04:40.837Z,20.40
2018-09-21T05:07:09.217Z,20.40
2018-09-21T05:09:37.524Z,20.40
2018-09-21T05:12:06.115Z,20.50
2018-09-21T05:14:34.509Z,20.60
2018-09-21T05:17:02.869Z,20.70
2018-09-21T05:19:31.268Z,20.60
2018-09-21T05:21:59.608Z,20.60
2018-09-21T05:24:28.138Z,20.70
2018-09-21T05:26:56.527Z,20.70
2018-09-21T05:29:24.856Z,20.90
2018-09-21T05:31:53.240Z,20.80
2018-09-21T05:34:21.624Z,20.80
2018-09-21T05:36:50.213Z,20.90
2018-09-21T05:39:18.582Z,20.90
2018-09-21T05:41:46.911Z,21.10
2018-09-21T05:44:15.309Z,21.20
2018-09-21T05:46:44.979Z,21.80
2018-09-21T05:49:13.379Z,22.30
2018-09-21T05:51:42.611Z,22.40
2018-09-21T05:54:10.987Z,22.50
2018-09-21T05:56:40.740Z,22.60
2018-09-21T05:59:09.132Z,22.70
2018-09-21T06:01:37.504Z,22.40
2018-09-21T06:04:05.890Z,22.10
2018-09-21T06:06:34.501Z,22.00
2018-09-21T06:09:02.951Z,22.10
2018-09-21T06:11:32.512Z,22.40
2018-09-21T06:14:00.868Z,22.40
2018-09-21T06:16:29.259Z,22.40
2018-09-21T06:18:57.629Z,22.30
2018-09-21T06:21:26.017Z,22.30
2018-09-21T06:23:54.381Z,22.40
2018-09-21T06:26:22.717Z,22.50
2018-09-21T06:28:51.162Z,22.50
2018-09-21T06:34:10.317Z,22.50
2018-09-21T06:36:38.774Z,22.60
2018-09-21T06:39:09.313Z,22.80
2018-09-21T06:41:38.539Z,23.10
2018-09-21T06:44:07.775Z,23.10
2018-09-21T06:46:42.311Z,22.90
2018-09-21T06:49:10.903Z,22.90
2018-09-21T06:51:39.333Z,22.90
2018-09-21T06:54:07.724Z,22.90
2018-09-21T06:56:36.090Z,22.80
2018-09-21T06:59:04.519Z,22.80
2018-09-21T07:01:32.982Z,22.80
2018-09-21T07:04:01.359Z,22.80
2018-09-21T07:06:29.699Z,22.80
2018-09-21T07:08:58.061Z,22.80
2018-09-21T07:11:26.617Z,22.90
2018-09-21T07:13:56.192Z,23.00
2018-09-21T07:16:24.624Z,23.00
2018-09-21T07:18:53.161Z,23.10
2018-09-21T07:21:21.734Z,23.20
2018-09-21T07:23:50.151Z,23.30
2018-09-21T07:26:18.536Z,23.50
2018-09-21T07:28:47.100Z,24.50
2018-09-21T07:31:15.580Z,25.10
2018-09-21T07:33:44.632Z,25.10
2018-09-21T07:36:13.049Z,25.40
2018-09-21T07:38:41.404Z,25.40
2018-09-21T07:41:09.726Z,25.90
2018-09-21T07:43:38.054Z,26.50
2018-09-21T07:46:06.556Z,26.80
2018-09-21T07:48:35.144Z,27.60
2018-09-21T07:51:03.518Z,27.80
2018-09-21T07:53:31.907Z,27.30
2018-09-21T07:56:00.306Z,27.20
2018-09-21T07:58:29.219Z,27.10
2018-09-21T08:00:58.070Z,27.10
2018-09-21T08:03:26.549Z,27.30
2018-09-21T08:05:55.003Z,27.80
2018-09-21T08:08:23.453Z,28.60
2018-09-21T08:10:52.144Z,29.00
2018-09-21T08:13:21.869Z,29.80
2018-09-21T08:15:50.313Z,29.80
2018-09-21T08:18:18.789Z,30.20
2018-09-21T08:20:48.609Z,30.40
2018-09-21T08:23:17.081Z,28.70
2018-09-21T08:25:45.579Z,27.40
2018-09-21T08:28:14.047Z,27.00
2018-09-21T08:30:42.475Z,27.40
2018-09-21T08:33:11.070Z,28.00
2018-09-21T08:35:39.505Z,28.90
2018-09-21T08:38:08.202Z,29.80
2018-09-21T08:40:36.633Z,30.10
2018-09-21T08:43:05.091Z,30.60
2018-09-21T08:45:34.123Z,30.70
2018-09-21T08:48:02.528Z,30.80
2018-09-21T08:50:31.020Z,30.90
2018-09-21T08:52:59.504Z,30.30
2018-09-21T08:55:27.900Z,31.00
2018-09-21T08:57:56.572Z,31.00
2018-09-21T09:00:24.953Z,31.00
2018-09-21T09:02:53.390Z,30.90
2018-09-21T09:05:24.046Z,31.10
2018-09-21T09:07:52.839Z,31.60
2018-09-21T09:10:21.346Z,31.50
2018-09-21T09:12:50.040Z,31.30
2018-09-21T09:15:18.480Z,31.20
2018-09-21T09:17:46.840Z,31.00
2018-09-21T09:20:15.446Z,31.10
2018-09-21T09:22:43.962Z,31.30
2018-09-21T09:25:12.901Z,31.70
2018-09-21T09:27:41.446Z,31.90
2018-09-21T09:30:09.954Z,30.60
2018-09-21T09:32:38.358Z,29.40
2018-09-21T09:35:06.857Z,29.10
2018-09-21T09:37:35.406Z,29.10
2018-09-21T09:40:03.982Z,28.70
2018-09-21T09:42:32.419Z,28.60
2018-09-21T09:45:00.881Z,28.60
2018-09-21T09:47:30.409Z,28.70
2018-09-21T09:49:58.849Z,29.60
2018-09-21T09:52:27.261Z,30.20
2018-09-21T09:54:56.611Z,29.20
2018-09-21T09:57:24.963Z,28.60
2018-09-21T09:59:53.437Z,29.10
2018-09-21T10:02:21.922Z,29.50
2018-09-21T10:04:50.381Z,30.40
2018-09-21T10:07:18.849Z,31.30
2018-09-21T10:09:47.266Z,30.80
2018-09-21T10:12:15.759Z,30.00
2018-09-21T10:14:44.173Z,30.30
2018-09-21T10:17:13.087Z,30.40
2018-09-21T10:19:41.547Z,30.10
2018-09-21T10:22:09.996Z,30.80
2018-09-21T10:24:38.597Z,31.70
2018-09-21T10:27:07.342Z,32.10
2018-09-21T10:29:35.825Z,33.00
2018-09-21T10:32:04.273Z,32.40
2018-09-21T10:34:32.753Z,31.60
2018-09-21T10:37:01.222Z,31.30
2018-09-21T10:39:30.508Z,31.60
2018-09-21T10:41:58.923Z,32.00
2018-09-21T10:44:27.319Z,32.30
2018-09-21T10:46:55.911Z,33.00
2018-09-21T10:49:24.408Z,33.00
2018-09-21T10:52:02.191Z,32.30
2018-09-21T10:54:31.217Z,31.60
2018-09-21T10:57:04.021Z,30.90
2018-09-21T10:59:37.947Z,30.70
2018-09-21T11:02:06.523Z,30.70
2018-09-21T11:04:35.025Z,31.30
2018-09-21T11:07:03.707Z,31.50
2018-09-21T11:09:32.901Z,31.80
2018-09-21T11:12:01.409Z,30.40
2018-09-21T11:14:29.984Z,29.90
2018-09-21T11:16:58.513Z,29.50
2018-09-21T11:19:27.217Z,29.50
2018-09-21T11:21:56.685Z,29.60
2018-09-21T11:24:25.870Z,30.60
2018-09-21T11:26:57.875Z,31.00
2018-09-21T11:29:26.312Z,31.20
2018-09-21T11:31:54.774Z,30.90
2018-09-21T11:34:23.312Z,30.10
2018-09-21T11:36:52.884Z,29.60
2018-09-21T11:39:21.600Z,29.60
2018-09-21T11:41:50.952Z,29.40
2018-09-21T11:44:40.414Z,29.10
2018-09-21T11:47:10.125Z,29.20
2018-09-21T11:49:39.101Z,28.90
2018-09-21T11:52:07.960Z,28.90
2018-09-21T11:54:36.430Z,28.80
2018-09-21T11:57:13.166Z,28.80
2018-09-21T11:59:41.837Z,28.80
2018-09-21T12:03:44.668Z,28.60
2018-09-21T12:06:37.385Z,28.50
2018-09-21T12:09:23.407Z,28.60
2018-09-21T12:15:10.753Z,28.30
2018-09-21T12:22:54.955Z,28.50
2018-09-21T12:25:29.455Z,28.40
2018-09-21T12:27:58.861Z,28.00
2018-09-21T12:30:30.498Z,27.90
2018-09-21T12:33:01.119Z,27.80
2018-09-21T12:35:31.314Z,27.80
2018-09-21T12:38:00.289Z,27.80
2018-09-21T12:40:31.510Z,27.70
2018-09-21T12:43:06.138Z,27.90
2018-09-21T12:45:46.740Z,27.90
2018-09-21T12:48:18.179Z,27.90
2018-09-21T12:53:44.367Z,28.20
2018-09-21T13:02:41.152Z,28.30
2018-09-21T13:05:09.459Z,28.40
2018-09-21T13:07:37.876Z,28.40
2018-09-21T13:10:06.356Z,28.50
2018-09-21T13:12:34.728Z,28.60
2018-09-21T13:15:03.216Z,28.60
2018-09-21T13:17:31.616Z,28.80
2018-09-21T13:20:00.039Z,28.80
2018-09-21T13:22:28.478Z,28.90
2018-09-21T13:24:56.874Z,28.80
2018-09-21T13:27:25.240Z,28.80
2018-09-21T13:29:53.916Z,28.80
2018-09-21T13:32:22.457Z,28.90
2018-09-21T13:34:50.794Z,29.00
2018-09-21T13:37:19.169Z,29.00
2018-09-21T13:39:47.823Z,28.90
2018-09-21T13:42:16.198Z,28.90
2018-09-21T13:44:44.520Z,28.90
2018-09-21T13:47:13.726Z,28.70
2018-09-21T13:49:42.077Z,28.60
2018-09-21T13:52:10.435Z,28.60
2018-09-21T13:54:38.788Z,28.50
2018-09-21T13:57:07.186Z,28.40
2018-09-21T13:59:35.557Z,28.40
2018-09-21T14:02:03.947Z,28.50
2018-09-21T14:04:32.390Z,28.30
2018-09-21T14:07:01.026Z,28.20
2018-09-21T14:09:29.403Z,28.10
2018-09-21T14:11:57.836Z,27.90
2018-09-21T14:14:26.199Z,28.00
2018-09-21T14:16:54.584Z,27.90
2018-09-21T14:19:22.985Z,27.70
2018-09-21T14:21:52.592Z,27.70
2018-09-21T14:24:21.331Z,27.60
2018-09-21T14:26:49.682Z,27.40
2018-09-21T14:29:18.744Z,27.40
2018-09-21T14:31:47.120Z,27.30
2018-09-21T14:34:15.498Z,27.20
2018-09-21T14:36:43.896Z,27.00
2018-09-21T14:39:12.548Z,27.00
2018-09-21T14:41:40.886Z,26.90
2018-09-21T14:44:09.261Z,26.80
2018-09-21T14:46:38.915Z,26.60
2018-09-21T14:49:07.284Z,26.60
2018-09-21T14:51:35.621Z,26.60
2018-09-21T14:54:04.086Z,26.60
2018-09-21T14:56:32.504Z,26.70
2018-09-21T14:59:00.860Z,26.70
2018-09-21T15:01:29.248Z,26.60
2018-09-21T15:03:57.720Z,26.70
2018-09-21T15:06:26.096Z,26.00
2018-09-21T15:08:54.485Z,25.10
2018-09-21T15:11:22.988Z,24.40
2018-09-21T15:13:51.796Z,23.70
2018-09-21T15:16:20.222Z,23.30
2018-09-21T15:18:48.655Z,23.10
2018-09-21T15:21:17.479Z,21.40
2018-09-21T15:23:45.918Z,20.20
2018-09-21T15:26:14.372Z,19.40
2018-09-21T15:28:42.930Z,19.00
2018-09-21T15:31:11.281Z,18.70
2018-09-21T15:33:39.714Z,18.60
2018-09-21T15:36:08.130Z,18.50
2018-09-21T15:38:36.539Z,18.20
2018-09-21T15:41:04.899Z,17.90
2018-09-21T15:43:33.357Z,17.70
2018-09-21T15:46:01.729Z,17.70
2018-09-21T15:48:30.429Z,17.60
2018-09-21T15:50:58.863Z,17.90
2018-09-21T15:53:27.282Z,17.90
2018-09-21T15:55:55.690Z,18.00
2018-09-21T15:58:24.437Z,17.90
2018-09-21T16:00:52.876Z,17.70
2018-09-21T16:03:21.237Z,17.80
2018-09-21T16:05:50.037Z,17.60
2018-09-21T16:08:18.410Z,17.60
2018-09-21T16:10:46.835Z,17.50
2018-09-21T16:13:15.215Z,17.30
2018-09-21T16:15:43.571Z,17.40
2018-09-21T16:18:11.961Z,17.30
2018-09-21T16:20:40.632Z,17.10
2018-09-21T16:23:09.707Z,17.10
2018-09-21T16:25:38.672Z,17.20
2018-09-21T16:28:07.024Z,17.30
2018-09-21T16:30:35.492Z,17.40
2018-09-21T16:33:03.876Z,17.30
2018-09-21T16:35:32.274Z,17.10
2018-09-21T16:38:00.711Z,17.50
2018-09-21T16:40:29.166Z,17.40
2018-09-21T16:42:57.579Z,17.20
2018-09-21T16:45:26.279Z,17.10
2018-09-21T16:47:54.679Z,17.00
2018-09-21T16:50:23.225Z,16.80
2018-09-21T16:52:51.649Z,16.70
2018-09-21T16:55:20.116Z,16.50
2018-09-21T16:57:48.558Z,16.50
2018-09-21T17:00:16.935Z,16.30
2018-09-21T17:02:46.157Z,16.20
2018-09-21T17:05:14.586Z,15.80
2018-09-21T17:07:43.063Z,15.50
2018-09-21T17:10:11.496Z,15.50
2018-09-21T17:12:40.006Z,15.40
2018-09-21T17:15:08.580Z,15.30
2018-09-21T17:17:37.028Z,15.00
2018-09-21T17:20:05.452Z,15.20
2018-09-21T17:22:33.870Z,15.00
2018-09-21T17:25:02.258Z,14.90
2018-09-21T17:27:30.675Z,14.80
2018-09-21T17:29:59.066Z,15.00
2018-09-21T17:32:27.460Z,15.10
2018-09-21T17:34:55.836Z,15.20
2018-09-21T17:37:24.233Z,15.20
2018-09-21T17:39:54.394Z,15.30
2018-09-21T17:42:22.838Z,15.00
2018-09-21T17:44:51.685Z,14.70
2018-09-21T17:47:20.084Z,14.60
2018-09-21T17:49:48.439Z,14.80
2018-09-21T17:52:17.113Z,14.70
2018-09-21T17:54:45.551Z,14.50
2018-09-21T17:57:14.277Z,14.70
2018-09-21T17:59:42.794Z,14.60
2018-09-21T18:02:11.237Z,14.60
2018-09-21T18:04:39.765Z,14.60
2018-09-21T18:07:08.222Z,14.60
2018-09-21T18:09:36.630Z,14.50
2018-09-21T18:12:05.075Z,14.40
2018-09-21T18:14:33.477Z,14.30
2018-09-21T18:17:01.849Z,14.30
2018-09-21T18:19:30.469Z,14.20
2018-09-21T18:21:58.829Z,14.20
2018-09-21T18:24:27.429Z,14.40
2018-09-21T18:26:55.947Z,14.30
2018-09-21T18:29:24.534Z,14.30
2018-09-21T18:31:52.876Z,14.50
2018-09-21T18:34:21.258Z,14.70
2018-09-21T18:36:50.103Z,14.50
2018-09-21T18:39:19.414Z,14.30
2018-09-21T18:41:47.814Z,14.30
2018-09-21T18:44:16.237Z,14.30
2018-09-21T18:46:44.851Z,14.30
2018-09-21T18:49:13.291Z,14.30
2018-09-21T18:51:41.699Z,14.20
2018-09-21T18:54:10.123Z,14.10
2018-09-21T18:56:38.709Z,14.00
2018-09-21T18:59:07.131Z,14.00
2018-09-21T19:01:35.800Z,14.20
2018-09-21T19:04:04.263Z,14.20
2018-09-21T19:06:32.697Z,14.10
2018-09-21T19:09:01.630Z,14.20
2018-09-21T19:11:30.022Z,14.20
2018-09-21T19:13:58.378Z,14.10
2018-09-21T19:16:26.752Z,14.20
2018-09-21T19:18:55.744Z,14.10
2018-09-21T19:21:24.111Z,14.10
2018-09-21T19:23:52.475Z,14.10
2018-09-21T19:26:21.165Z,14.10
2018-09-21T19:28:49.612Z,14.40
2018-09-21T19:31:18.374Z,14.20
2018-09-21T19:33:47.323Z,14.10
2018-09-21T19:36:16.489Z,14.10
2018-09-21T19:38:45.874Z,14.40
2018-09-21T19:41:14.297Z,14.50
2018-09-21T19:43:43.022Z,14.50
2018-09-21T19:46:11.783Z,14.50
2018-09-21T19:48:41.420Z,14.60
2018-09-21T19:51:09.835Z,14.50
2018-09-21T19:53:38.229Z,14.60
2018-09-21T19:56:06.658Z,14.60
2018-09-21T19:58:35.023Z,14.40
2018-09-21T20:01:03.435Z,14.30
2018-09-21T20:03:31.838Z,14.20
2018-09-21T20:06:00.310Z,14.20
2018-09-21T20:08:28.723Z,14.30
2018-09-21T20:10:57.127Z,14.30
2018-09-21T20:13:25.515Z,14.30
2018-09-21T20:15:53.916Z,14.30
2018-09-21T20:18:22.604Z,14.30
2018-09-21T20:20:51.264Z,14.20
2018-09-21T20:23:19.665Z,14.20
2018-09-21T20:25:48.152Z,14.30
2018-09-21T20:28:16.589Z,14.30
2018-09-21T20:30:50.156Z,14.30
2018-09-21T20:33:23.908Z,14.30
2018-09-21T20:35:52.288Z,14.20
2018-09-21T20:38:21.931Z,14.10
2018-09-21T20:40:50.359Z,14.20
2018-09-21T20:43:19.115Z,14.20
2018-09-21T20:45:47.593Z,14.20
2018-09-21T20:48:16.423Z,14.10
2018-09-21T20:50:45.431Z,14.10
2018-09-21T20:53:13.864Z,14.20
2018-09-21T20:55:42.397Z,14.30
2018-09-21T20:58:11.015Z,14.20
2018-09-21T21:00:39.736Z,14.10
2018-09-21T21:03:08.092Z,14.30
2018-09-21T21:05:36.469Z,14.10
2018-09-21T21:08:05.548Z,14.10
2018-09-21T21:10:33.984Z,14.00
2018-09-21T21:13:02.411Z,14.00
2018-09-21T21:15:30.793Z,14.10
2018-09-21T21:17:59.731Z,14.00
2018-09-21T21:20:28.178Z,14.00
2018-09-21T21:22:56.540Z,14.10
2018-09-21T21:25:24.872Z,14.00
2018-09-21T21:27:53.286Z,14.10
2018-09-21T21:30:21.659Z,14.00
2018-09-21T21:32:49.992Z,14.00
2018-09-21T21:35:18.414Z,13.90
2018-09-21T21:37:46.951Z,13.80
2018-09-21T21:40:15.309Z,13.80
2018-09-21T21:42:44.367Z,13.80
2018-09-21T21:45:13.138Z,13.80
2018-09-21T21:47:41.470Z,13.70
2018-09-21T21:50:09.803Z,13.70
2018-09-21T21:52:38.699Z,13.80
2018-09-21T21:55:07.408Z,13.70
2018-09-21T21:57:36.003Z,13.60
2018-09-21T22:00:05.298Z,13.60
2018-09-21T22:02:35.236Z,13.50
2018-09-21T22:05:04.616Z,13.50
2018-09-21T22:07:33.787Z,13.50
2018-09-21T22:10:03.476Z,13.50
2018-09-21T22:12:37.304Z,13.40
2018-09-21T22:15:09.978Z,13.50
2018-09-21T22:17:38.414Z,13.40
2018-09-21T22:20:06.831Z,13.40
2018-09-21T22:22:35.214Z,13.40
2018-09-21T22:25:03.631Z,13.40
2018-09-21T22:27:32.243Z,13.30
2018-09-21T22:30:00.672Z,13.20
2018-09-21T22:32:29.036Z,13.20
2018-09-21T22:34:57.420Z,13.20
2018-09-21T22:37:26.133Z,13.20
2018-09-21T22:39:54.521Z,13.20
2018-09-21T22:42:23.032Z,13.20
2018-09-21T22:44:51.410Z,13.20
2018-09-21T22:47:19.841Z,13.10
2018-09-21T22:49:48.216Z,13.10
2018-09-21T22:52:16.601Z,13.10
2018-09-21T22:54:44.985Z,13.10
2018-09-21T22:57:13.368Z,13.10
2018-09-21T22:59:41.725Z,13.10
2018-09-21T23:02:10.147Z,13.10
2018-09-21T23:04:38.557Z,13.10
2018-09-21T23:07:07.033Z,13.10
2018-09-21T23:09:35.503Z,13.00
2018-09-21T23:12:03.845Z,13.10
2018-09-21T23:14:32.223Z,13.00
2018-09-21T23:17:00.604Z,12.90
2018-09-21T23:19:28.970Z,13.00
2018-09-21T23:21:57.345Z,12.90
2018-09-21T23:24:25.685Z,12.90
2018-09-21T23:26:54.065Z,12.80
2018-09-21T23:29:22.439Z,12.90
2018-09-21T23:31:50.847Z,12.80
2018-09-21T23:34:19.249Z,12.80
2018-09-21T23:36:47.607Z,12.80
2018-09-21T23:39:15.989Z,12.80
2018-09-21T23:41:45.331Z,12.80
2018-09-21T23:44:14.133Z,12.80
2018-09-21T23:46:42.555Z,12.80
2018-09-21T23:49:10.979Z,12.80
2018-09-21T23:51:39.350Z,12.70
2018-09-21T23:54:07.704Z,12.70
2018-09-21T23:56:36.060Z,12.70
2018-09-21T23:59:04.467Z,12.70
